Time;durP1;ratioP1;P1;durP2;ratioP2;P2;SDS_P1;SDS_P2;PMS_P1;PMS_P2;Temp;Humidity;BMP_temperature;BMP_pressure;BME280_temperature;BME280_humidity;BME280_pressure;Samples;Min_cycle;Max_cycle;Signal;HPM_P1;HPM_P2
2022/09/10 00:01:40;;;;;;;;;2.00;1.00;;;;;18.56;66.20;101017.81;4903200;29;45537;-73
2022/09/10 00:04:10;;;;;;;;;1.75;0.75;;;;;18.61;66.39;101023.81;4903279;29;45593;-73
2022/09/10 00:06:37;;;;;;;;;3.00;2.00;;;;;18.58;65.78;101017.72;4886922;28;46246;-73
2022/09/10 00:09:04;;;;;;;;;2.25;1.00;;;;;18.60;66.06;101024.75;4896111;29;45392;-73
2022/09/10 00:11:30;;;;;;;;;1.75;1.00;;;;;18.58;66.06;101017.72;4903337;29;45432;-73
2022/09/10 00:14:00;;;;;;;;;1.50;1.50;;;;;18.62;65.93;101028.22;4901723;29;45461;-73
2022/09/10 00:16:26;;;;;;;;;1.00;0.75;;;;;18.56;66.28;101016.91;4902442;29;45466;-73
2022/09/10 00:18:52;;;;;;;;;1.25;1.25;;;;;18.58;66.20;101025.84;4902584;29;45520;-73
2022/09/10 00:21:21;;;;;;;;;1.50;1.50;;;;;18.59;66.11;101024.84;4902980;29;45344;-73
2022/09/10 00:23:48;;;;;;;;;0.75;0.75;;;;;18.60;66.22;101022.06;4903143;29;45491;-73
2022/09/10 00:26:21;;;;;;;;;1.25;0.75;;;;;18.57;66.17;101026.78;4903212;29;46307;-73
2022/09/10 00:28:47;;;;;;;;;2.50;2.00;;;;;18.56;66.28;101022.31;4902965;29;45343;-73
2022/09/10 00:31:13;;;;;;;;;2.75;1.00;;;;;18.51;66.33;101015.38;4903357;29;45411;-73
2022/09/10 00:33:40;;;;;;;;;3.00;1.75;;;;;18.46;66.14;101003.09;4902819;29;45418;-73
2022/09/10 00:36:14;;;;;;;;;2.50;2.50;;;;;18.47;66.05;101007.56;4901504;28;47296;-73
2022/09/10 00:38:40;;;;;;;;;2.00;1.00;;;;;18.45;66.52;100998.69;4902884;29;45357;-73
2022/09/10 00:41:07;;;;;;;;;0.75;0.75;;;;;18.42;66.28;100988.91;4903092;29;45252;-73
2022/09/10 00:43:53;;;;;;;;;1.50;0.50;;;;;18.55;66.17;101015.19;4911004;28;45471;-73
2022/09/10 00:46:32;;;;;;;;;1.25;1.25;;;;;18.48;66.38;101004.75;4902810;29;45500;-73
2022/09/10 00:49:01;;;;;;;;;2.00;1.00;;;;;18.46;66.19;100997.69;4891460;29;45329;-73
2022/09/10 00:51:31;;;;;;;;;2.75;2.00;;;;;18.50;66.26;101007.38;4902461;29;45565;-73
2022/09/10 00:53:59;;;;;;;;;2.75;0.75;;;;;18.46;65.71;101000.41;4902864;29;45398;-73
2022/09/10 00:56:25;;;;;;;;;1.50;1.50;;;;;18.50;66.11;101001.97;4901882;28;46045;-73
2022/09/10 00:58:51;;;;;;;;;2.75;1.00;;;;;18.51;66.40;101001.00;4901820;28;45783;-73
2022/09/10 01:01:18;;;;;;;;;1.75;0.25;;;;;18.48;66.16;100999.34;4902604;28;45323;-73
2022/09/10 01:03:43;;;;;;;;;4.00;1.75;;;;;18.49;66.17;101009.22;4902468;29;45347;-73
2022/09/10 01:06:09;;;;;;;;;2.75;1.00;;;;;18.53;66.19;101009.88;4914989;28;46806;-73
2022/09/10 01:08:35;;;;;;;;;2.25;1.75;;;;;18.51;65.73;101001.88;4890253;29;45470;-73
2022/09/10 01:11:32;;;;;;;;;3.50;2.00;;;;;18.51;65.94;101009.13;4902737;29;45567;-73
2022/09/10 01:14:08;;;;;;;;;2.25;0.75;;;;;18.51;66.22;101006.41;4902598;29;45771;-73
2022/09/10 01:16:59;;;;;;;;;1.00;1.00;;;;;18.50;66.12;100999.25;4901050;29;45527;-73
2022/09/10 01:19:40;;;;;;;;;2.75;1.75;;;;;18.53;65.82;101007.19;4902462;28;46776;-73
2022/09/10 01:22:24;;;;;;;;;2.00;1.00;;;;;18.53;65.75;101001.78;4902155;28;45404;-73
2022/09/10 01:24:59;;;;;;;;;3.00;1.75;;;;;18.44;66.03;100991.50;4902290;29;45500;-73
2022/09/10 01:27:46;;;;;;;;;0.75;0.75;;;;;18.41;66.03;100998.00;4916900;28;47391;-73
2022/09/10 01:30:14;;;;;;;;;2.75;0.75;;;;;18.44;65.89;101008.63;4901190;29;45524;-73
2022/09/10 01:32:52;;;;;;;;;3.75;2.00;;;;;18.44;66.03;101008.63;4902348;29;45543;-73
2022/09/10 01:35:21;;;;;;;;;1.50;1.00;;;;;18.40;66.00;100998.09;4902105;29;45347;-73
2022/09/10 01:37:53;;;;;;;;;3.50;3.50;;;;;18.36;66.04;100996.53;4902060;29;45438;-73
2022/09/10 01:40:19;;;;;;;;;3.00;1.75;;;;;18.40;66.43;101004.34;4902015;28;45329;-73
2022/09/10 01:42:45;;;;;;;;;1.00;1.00;;;;;18.41;66.38;101010.63;4916798;28;45344;-73
2022/09/10 01:45:14;;;;;;;;;0.75;0.75;;;;;18.28;66.60;101000.56;4902038;29;45273;-73
2022/09/10 01:48:06;;;;;;;;;3.00;1.75;;;;;18.37;66.45;101019.88;4901923;29;45342;-73
2022/09/10 01:50:45;;;;;;;;;1.75;1.75;;;;;18.37;66.64;101015.34;4889974;29;45492;-73
2022/09/10 01:53:26;;;;;;;;;1.75;1.75;;;;;18.30;66.20;101001.34;4898388;29;45474;-73
2022/09/10 01:56:18;;;;;;;;;0.75;0.75;;;;;18.33;66.87;101009.25;4916573;28;45509;-73
2022/09/10 01:58:44;;;;;;;;;1.75;1.75;;;;;18.36;66.32;101010.03;4895625;29;48688;-73
2022/09/10 02:01:31;;;;;;;;;3.25;0.75;;;;;18.33;66.38;101014.66;4901696;28;45568;-73
2022/09/10 02:04:04;;;;;;;;;1.00;1.00;;;;;18.29;66.51;101007.72;4900660;29;45517;-73
2022/09/10 02:06:34;;;;;;;;;3.50;1.50;;;;;18.24;66.21;101000.84;4897247;29;45283;-73
2022/09/10 02:09:01;;;;;;;;;5.50;1.25;;;;;18.35;66.21;101017.28;4895067;29;46129;-73
2022/09/10 02:11:27;;;;;;;;;0.25;0.25;;;;;18.27;66.36;101001.53;4904844;29;45410;-73
2022/09/10 02:13:53;;;;;;;;;2.25;1.25;;;;;18.33;66.45;101008.41;4904018;29;45497;-73
2022/09/10 02:16:32;;;;;;;;;3.50;3.50;;;;;18.28;66.30;101003.28;4904673;28;46069;-73
2022/09/10 02:18:59;;;;;;;;;3.25;1.75;;;;;18.26;66.25;100996.19;4903664;29;45336;-73
2022/09/10 02:21:24;;;;;;;;;1.75;1.25;;;;;18.33;66.63;101014.66;4904680;28;45516;-73
2022/09/10 02:23:55;;;;;;;;;1.75;1.75;;;;;18.33;66.19;101014.66;4904830;29;45434;-73
2022/09/10 02:26:21;;;;;;;;;2.50;2.25;;;;;18.33;66.00;101011.97;4904880;28;45434;-73
2022/09/10 02:28:50;;;;;;;;;1.25;0.75;;;;;18.31;66.48;101002.22;4904656;29;45384;-73
2022/09/10 02:31:17;;;;;;;;;2.75;1.00;;;;;18.27;66.18;101003.34;4905063;29;45575;-73
2022/09/10 02:33:42;;;;;;;;;0.75;0.75;;;;;18.30;66.22;101008.59;4904695;28;45961;-73
2022/09/10 02:36:08;;;;;;;;;1.25;1.25;;;;;18.32;65.99;101012.06;4919292;28;45423;-73
2022/09/10 02:38:33;;;;;;;;;1.75;1.00;;;;;18.33;66.33;101011.09;4904567;29;45562;-73
2022/09/10 02:40:58;;;;;;;;;1.50;1.00;;;;;18.35;66.30;101013.72;4904815;28;45377;-73
2022/09/10 02:43:27;;;;;;;;;5.25;2.00;;;;;18.31;66.53;101002.22;4903834;28;47407;-73
2022/09/10 02:45:55;;;;;;;;;1.00;1.00;;;;;18.33;66.17;101013.81;4904723;28;45575;-73
2022/09/10 02:48:21;;;;;;;;;2.00;1.75;;;;;18.32;66.43;101010.22;4904322;29;46181;-73
2022/09/10 02:50:47;;;;;;;;;1.50;1.00;;;;;18.21;66.20;100998.31;4886822;29;45390;-73
2022/09/10 02:53:12;;;;;;;;;4.50;2.00;;;;;18.27;66.01;101008.75;4904661;29;45285;-73
2022/09/10 02:55:38;;;;;;;;;2.75;1.75;;;;;18.25;66.62;101010.69;4904266;29;45389;-73
2022/09/10 02:58:03;;;;;;;;;1.75;1.75;;;;;18.19;66.66;101002.94;4886495;29;46819;-73
2022/09/10 03:00:31;;;;;;;;;2.25;1.75;;;;;18.20;66.58;101010.09;4904255;29;51152;-73
2022/09/10 03:02:56;;;;;;;;;3.00;2.50;;;;;18.23;66.37;101016.19;4904165;29;45332;-73
2022/09/10 03:05:21;;;;;;;;;1.00;0.75;;;;;18.21;66.48;101011.81;4904546;29;45302;-73
2022/09/10 03:07:47;;;;;;;;;1.75;1.00;;;;;18.25;66.95;101016.09;4886023;29;47100;-73
2022/09/10 03:10:12;;;;;;;;;1.50;1.50;;;;;18.28;66.67;101026.72;4904404;29;45337;-73
2022/09/10 03:12:38;;;;;;;;;2.25;1.25;;;;;18.29;66.60;101023.03;4902919;29;45340;-73
2022/09/10 03:15:04;;;;;;;;;1.25;0.75;;;;;18.25;66.44;101018.81;4903171;29;45414;-73
2022/09/10 03:17:29;;;;;;;;;1.00;1.00;;;;;18.29;66.26;101034.75;4903051;29;46226;-73
2022/09/10 03:19:54;;;;;;;;;4.50;1.75;;;;;18.21;66.13;101007.31;4903774;29;45346;-73
2022/09/10 03:22:20;;;;;;;;;2.75;1.00;;;;;18.26;66.44;101018.72;4903606;29;46728;-73
2022/09/10 03:24:46;;;;;;;;;1.00;1.00;;;;;18.23;66.61;101012.63;4886908;29;49708;-73
2022/09/10 03:27:12;;;;;;;;;1.25;1.25;;;;;18.24;66.13;101011.66;4886841;29;47392;-73
2022/09/10 03:29:38;;;;;;;;;1.00;1.00;;;;;18.23;66.53;101015.31;4904024;29;45558;-73
2022/09/10 03:32:03;;;;;;;;;4.25;2.75;;;;;18.26;66.67;101025.94;4903671;29;46431;-73
2022/09/10 03:34:28;;;;;;;;;1.75;1.75;;;;;18.29;66.80;101020.34;4903988;29;45553;-73
2022/09/10 03:36:54;;;;;;;;;3.00;1.75;;;;;18.29;66.11;101025.75;4903740;28;45460;-73
2022/09/10 03:39:19;;;;;;;;;0.75;0.75;;;;;18.27;66.07;101009.63;4903633;29;53243;-73
2022/09/10 03:41:46;;;;;;;;;1.25;1.25;;;;;18.32;66.77;101023.72;4903883;29;45483;-73
2022/09/10 03:44:12;;;;;;;;;2.75;1.25;;;;;18.31;66.25;101021.16;4902736;29;45297;-73
2022/09/10 03:46:37;;;;;;;;;1.25;1.00;;;;;18.28;66.34;101014.09;4903606;29;45417;-73
2022/09/10 03:49:06;;;;;;;;;1.00;1.00;;;;;18.37;66.25;101022.59;4903613;29;45276;-73
2022/09/10 03:51:32;;;;;;;;;1.50;1.50;;;;;18.28;66.15;101010.50;4903295;29;45466;-73
2022/09/10 03:53:59;;;;;;;;;4.25;1.25;;;;;18.31;66.29;101015.75;4903586;29;45417;-73
2022/09/10 03:56:25;;;;;;;;;2.75;1.75;;;;;18.32;66.12;101018.31;4903428;28;45379;-73
2022/09/10 03:58:51;;;;;;;;;2.00;1.75;;;;;18.33;66.05;101017.38;4903676;29;45369;-73
2022/09/10 04:01:16;;;;;;;;;2.00;1.25;;;;;18.38;66.57;101027.06;4903013;29;45477;-73
2022/09/10 04:03:42;;;;;;;;;1.75;1.75;;;;;18.32;66.29;101014.75;4903465;29;45338;-73
2022/09/10 04:06:11;;;;;;;;;1.00;1.00;;;;;18.41;66.08;101019.63;4900315;28;48081;-73
2022/09/10 04:08:37;;;;;;;;;4.00;1.75;;;;;18.39;66.06;101024.22;4892716;29;45545;-73
2022/09/10 04:11:03;;;;;;;;;6.00;1.75;;;;;18.31;65.99;101010.34;4903408;29;45397;-73
2022/09/10 04:13:30;;;;;;;;;1.25;0.75;;;;;18.37;66.26;101019.88;4902384;29;45514;-73
2022/09/10 04:15:56;;;;;;;;;2.25;1.75;;;;;18.40;65.96;101028.69;4902807;28;46517;-73
2022/09/10 04:18:21;;;;;;;;;2.25;1.75;;;;;18.33;65.77;101016.50;4886010;29;45497;-73
2022/09/10 04:20:47;;;;;;;;;1.00;1.00;;;;;18.33;66.34;101020.06;4902852;29;45519;-73
2022/09/10 04:23:13;;;;;;;;;2.00;1.75;;;;;18.36;66.05;101023.53;4903403;29;45305;-73
2022/09/10 04:25:39;;;;;;;;;2.50;1.25;;;;;18.40;65.90;101028.69;4902960;29;45357;-73
2022/09/10 04:28:04;;;;;;;;;3.00;2.00;;;;;18.39;65.96;101028.75;4903104;29;45612;-73
2022/09/10 04:30:30;;;;;;;;;0.75;0.75;;;;;18.32;66.54;101018.31;4885692;29;45601;-73
2022/09/10 04:32:55;;;;;;;;;1.50;1.50;;;;;18.33;66.14;101019.22;4901873;29;47479;-73
2022/09/10 04:35:20;;;;;;;;;1.75;1.25;;;;;18.31;65.87;101018.44;4902954;29;45511;-73
2022/09/10 04:37:46;;;;;;;;;2.75;1.75;;;;;18.37;66.31;101026.16;4902868;29;45476;-73
2022/09/10 04:40:11;;;;;;;;;0.00;0.00;;;;;18.42;65.91;101031.28;4902873;29;45406;-73
2022/09/10 04:42:37;;;;;;;;;2.00;0.75;;;;;18.34;66.21;101018.22;4902899;29;45322;-73
2022/09/10 04:45:03;;;;;;;;;2.00;2.00;;;;;18.42;66.27;101028.59;4901198;29;47318;-73
2022/09/10 04:47:28;;;;;;;;;1.75;1.75;;;;;18.39;65.89;101026.94;4902819;29;45596;-73
2022/09/10 04:49:54;;;;;;;;;1.00;1.00;;;;;18.40;65.82;101033.22;4902887;29;45462;-73
2022/09/10 04:52:21;;;;;;;;;4.00;1.00;;;;;18.31;66.46;101023.84;4902381;29;45548;-73
2022/09/10 04:54:47;;;;;;;;;3.25;2.00;;;;;18.40;66.40;101033.22;4902213;29;45493;-73
2022/09/10 04:57:13;;;;;;;;;2.00;2.00;;;;;18.32;66.20;101020.16;4902678;29;45520;-73
2022/09/10 04:59:39;;;;;;;;;3.75;1.25;;;;;18.42;65.76;101036.69;4902727;29;45315;-73
2022/09/10 05:02:05;;;;;;;;;5.00;2.25;;;;;18.44;65.75;101038.34;4901267;29;45497;-73
2022/09/10 05:04:31;;;;;;;;;1.00;1.00;;;;;18.34;66.14;101020.94;4902455;29;45912;-73
2022/09/10 05:06:57;;;;;;;;;2.25;1.75;;;;;18.43;66.01;101031.19;4893682;29;45412;-73
2022/09/10 05:09:22;;;;;;;;;2.75;1.75;;;;;18.47;65.86;101045.41;4896479;29;45566;-74
2022/09/10 05:11:48;;;;;;;;;4.75;1.25;;;;;18.44;65.81;101046.47;4885546;29;45388;-73
2022/09/10 05:14:14;;;;;;;;;4.50;2.00;;;;;18.38;66.02;101035.16;4901362;29;46256;-73
2022/09/10 05:16:40;;;;;;;;;2.25;2.00;;;;;18.38;65.94;101041.41;4899893;29;45593;-73
2022/09/10 05:19:06;;;;;;;;;1.75;1.75;;;;;18.43;65.96;101055.53;4902609;29;45317;-73
2022/09/10 05:21:32;;;;;;;;;3.00;2.75;;;;;18.40;66.33;101054.84;4900610;29;45458;-73
2022/09/10 05:23:58;;;;;;;;;1.50;1.00;;;;;18.45;66.26;101064.41;4902294;29;45563;-73
2022/09/10 05:26:24;;;;;;;;;1.50;1.00;;;;;18.45;65.85;101068.94;4902365;29;45403;-73
2022/09/10 05:28:52;;;;;;;;;2.00;1.50;;;;;18.47;66.12;101065.16;4902309;29;45347;-73
2022/09/10 05:31:18;;;;;;;;;1.25;1.25;;;;;18.38;66.06;101054.94;4902329;29;45429;-73
2022/09/10 05:33:43;;;;;;;;;2.00;2.00;;;;;18.47;66.09;101072.41;4884867;29;47156;-74
2022/09/10 05:36:09;;;;;;;;;1.50;1.50;;;;;18.44;66.10;101064.50;4902172;29;45428;-73
2022/09/10 05:38:35;;;;;;;;;2.00;1.25;;;;;18.43;66.07;101063.63;4885339;29;45525;-73
2022/09/10 05:41:00;;;;;;;;;2.75;2.50;;;;;18.40;66.15;101068.34;4902242;29;45573;-73
2022/09/10 05:43:26;;;;;;;;;2.00;2.00;;;;;18.40;66.17;101065.66;4902607;29;46011;-73
2022/09/10 05:45:52;;;;;;;;;3.75;2.00;;;;;18.40;66.38;101080.03;4905573;29;45481;-73
2022/09/10 05:48:19;;;;;;;;;3.00;1.25;;;;;18.40;66.28;101074.63;4904062;29;45460;-73
2022/09/10 05:50:44;;;;;;;;;2.00;2.00;;;;;18.42;66.44;101082.66;4903925;29;45697;-73
2022/09/10 05:53:10;;;;;;;;;5.00;2.25;;;;;18.43;66.34;101087.97;4905011;29;45807;-73
2022/09/10 05:55:36;;;;;;;;;3.75;2.25;;;;;18.41;66.25;101089.88;4905345;29;46069;-73
2022/09/10 05:58:01;;;;;;;;;2.00;2.00;;;;;18.36;66.05;101080.28;4905332;29;45416;-73
2022/09/10 06:00:27;;;;;;;;;2.00;2.00;;;;;18.42;66.28;101094.31;4901173;28;45735;-73
2022/09/10 06:02:53;;;;;;;;;4.00;2.25;;;;;18.40;66.45;101093.53;4904003;28;46373;-75
2022/09/10 06:05:21;;;;;;;;;4.25;2.00;;;;;18.40;66.01;101108.91;4904765;28;45387;-73
2022/09/10 06:07:47;;;;;;;;;3.00;1.50;;;;;18.38;66.62;101100.88;4889710;29;45489;-73
2022/09/10 06:10:13;;;;;;;;;5.00;2.00;;;;;18.39;66.43;101090.94;4904918;29;45448;-73
2022/09/10 06:12:39;;;;;;;;;1.25;1.25;;;;;18.35;66.38;101101.06;4887097;29;46225;-73
2022/09/10 06:15:06;;;;;;;;;3.50;2.00;;;;;18.33;66.83;101097.59;4904282;29;45342;-73
2022/09/10 06:17:31;;;;;;;;;2.00;1.75;;;;;18.38;66.77;101111.69;4900385;29;45433;-73
2022/09/10 06:19:57;;;;;;;;;2.50;2.50;;;;;18.37;66.20;101114.47;4904908;29;45466;-68
2022/09/10 06:22:22;;;;;;;;;3.25;3.00;;;;;18.31;66.02;101100.38;4904469;29;45476;-71
2022/09/10 06:24:48;;;;;;;;;2.75;2.25;;;;;18.43;66.61;101120.41;4907534;28;45565;-66
2022/09/10 06:27:13;;;;;;;;;1.00;1.00;;;;;18.43;66.45;101119.53;4904974;29;45397;-67
2022/09/10 06:29:39;;;;;;;;;0.50;0.50;;;;;18.35;66.27;101111.00;4903995;29;45383;-69
2022/09/10 06:32:04;;;;;;;;;2.00;2.00;;;;;18.35;66.21;101111.88;4903377;29;46996;-68
2022/09/10 06:34:30;;;;;;;;;2.75;2.00;;;;;18.35;66.37;101114.56;4904738;29;45494;-68
2022/09/10 06:36:57;;;;;;;;;2.25;1.75;;;;;18.37;66.02;101123.44;4904887;28;45373;-68
2022/09/10 06:39:22;;;;;;;;;1.00;0.75;;;;;18.31;66.08;101111.19;4904706;29;45431;-68
2022/09/10 06:41:47;;;;;;;;;2.75;2.75;;;;;18.37;66.24;101126.16;4904350;29;45361;-71
2022/09/10 06:44:13;;;;;;;;;2.00;2.00;;;;;18.38;66.40;101133.31;4903240;29;45256;-67
2022/09/10 06:46:39;;;;;;;;;3.00;1.00;;;;;18.37;66.59;101136.97;4903847;29;45368;-68
2022/09/10 06:49:05;;;;;;;;;3.00;2.50;;;;;18.39;66.16;101143.13;4904538;29;45749;-68
2022/09/10 06:51:31;;;;;;;;;6.25;3.00;;;;;18.32;66.61;101126.41;4904056;29;45950;-68
2022/09/10 06:53:57;;;;;;;;;4.00;2.75;;;;;18.36;66.34;101132.53;4903163;29;45542;-68
2022/09/10 06:56:23;;;;;;;;;3.00;3.00;;;;;18.39;66.50;101143.13;4904306;29;45729;-68
2022/09/10 06:58:48;;;;;;;;;3.75;1.75;;;;;18.37;66.76;101134.25;4904309;29;45347;-68
2022/09/10 07:01:19;;;;;;;;;2.50;2.50;;;;;18.36;66.65;101137.94;4904245;29;46494;-68
2022/09/10 07:03:45;;;;;;;;;3.25;2.00;;;;;18.41;66.62;101140.34;4887017;29;45473;-66
2022/09/10 07:06:16;;;;;;;;;1.50;1.50;;;;;18.44;66.68;101151.88;4885389;29;45623;-66
2022/09/10 07:08:42;;;;;;;;;0.00;0.00;;;;;18.36;66.50;101134.34;4896756;29;45380;-65
2022/09/10 07:11:11;;;;;;;;;1.25;1.25;;;;;18.46;66.89;101154.47;4904004;29;46409;-66
2022/09/10 07:13:37;;;;;;;;;1.75;1.75;;;;;18.44;66.88;101153.69;4887126;29;45656;-66
2022/09/10 07:16:03;;;;;;;;;2.00;2.00;;;;;18.42;67.07;101150.22;4909034;28;45558;-65
2022/09/10 07:18:29;;;;;;;;;1.75;1.75;;;;;18.43;66.54;101152.81;4903846;29;45404;-66
2022/09/10 07:21:09;;;;;;;;;1.75;1.75;;;;;18.47;66.72;101167.88;4902952;29;46466;-65
2022/09/10 07:23:34;;;;;;;;;4.50;1.75;;;;;18.46;66.34;101152.66;4904158;29;45280;-66
2022/09/10 07:26:08;;;;;;;;;1.25;1.25;;;;;18.46;66.27;101163.47;4903897;28;45411;-66
2022/09/10 07:28:35;;;;;;;;;1.75;1.75;;;;;18.51;66.21;101161.34;4886751;29;45894;-67
2022/09/10 07:31:14;;;;;;;;;1.50;1.50;;;;;18.53;66.55;101166.69;4903402;29;45426;-67
2022/09/10 07:33:39;;;;;;;;;1.50;1.50;;;;;18.52;66.35;101160.38;4903655;29;45396;-67
2022/09/10 07:36:05;;;;;;;;;1.50;1.50;;;;;18.56;65.99;101165.59;4886859;29;45288;-67
2022/09/10 07:38:31;;;;;;;;;2.75;1.50;;;;;18.56;66.22;101162.91;4889591;28;45465;-65
2022/09/10 07:40:59;;;;;;;;;2.00;2.00;;;;;18.61;66.80;101171.59;4905672;28;46146;-66
2022/09/10 07:43:25;;;;;;;;;1.50;1.50;;;;;18.59;66.40;101166.28;4903710;29;45388;-68
2022/09/10 07:45:50;;;;;;;;;2.25;1.50;;;;;18.63;66.47;101172.41;4903664;29;45661;-67
2022/09/10 07:48:15;;;;;;;;;1.75;1.50;;;;;18.61;66.55;101166.19;4886402;29;45936;-68
2022/09/10 07:50:41;;;;;;;;;2.00;1.00;;;;;18.63;66.53;101172.41;4903564;29;45499;-68
2022/09/10 07:53:06;;;;;;;;;1.50;1.50;;;;;18.68;66.57;101181.97;4903703;29;45386;-68
2022/09/10 07:55:32;;;;;;;;;1.75;1.75;;;;;18.61;66.33;101177.03;4902701;29;45512;-68
2022/09/10 07:57:57;;;;;;;;;3.50;2.25;;;;;18.57;66.51;101165.53;4903491;29;45376;-67
2022/09/10 08:00:22;;;;;;;;;2.00;2.00;;;;;18.69;66.10;101190.94;4903262;29;45550;-67
2022/09/10 08:02:48;;;;;;;;;2.00;0.75;;;;;18.74;66.37;101193.41;4903216;29;45579;-68
2022/09/10 08:05:13;;;;;;;;;2.50;1.75;;;;;18.75;66.19;101197.84;4886311;29;45475;-68
2022/09/10 08:07:40;;;;;;;;;3.00;2.00;;;;;18.78;65.81;101198.53;4901390;29;45551;-67
2022/09/10 08:10:08;;;;;;;;;1.50;1.50;;;;;18.75;66.07;101190.59;4902998;29;46382;-68
2022/09/10 08:12:38;;;;;;;;;1.75;1.75;;;;;18.72;66.45;101185.38;4902508;29;45602;-68
2022/09/10 08:15:04;;;;;;;;;4.00;2.00;;;;;18.81;66.29;101203.75;4886115;29;45416;-67
2022/09/10 08:17:30;;;;;;;;;1.75;1.75;;;;;18.80;66.14;101199.31;4890272;29;45254;-67
2022/09/10 08:19:56;;;;;;;;;2.75;1.00;;;;;18.80;66.28;101193.91;4903139;29;45408;-68
2022/09/10 08:22:21;;;;;;;;;3.00;2.00;;;;;18.86;65.67;101206.19;4903039;29;45868;-68
2022/09/10 08:24:47;;;;;;;;;3.50;3.50;;;;;18.87;66.13;101208.81;4901922;29;45539;-68
2022/09/10 08:27:14;;;;;;;;;1.00;1.00;;;;;18.88;65.66;101210.56;4903350;29;45434;-67
2022/09/10 08:29:40;;;;;;;;;2.00;2.00;;;;;18.87;65.39;101192.59;4885302;29;47247;-67
2022/09/10 08:32:06;;;;;;;;;1.00;1.00;;;;;18.93;65.59;101213.00;4885905;29;45447;-68
2022/09/10 08:34:33;;;;;;;;;3.00;2.00;;;;;18.91;65.47;101200.53;4903028;29;45409;-68
2022/09/10 08:36:58;;;;;;;;;3.75;2.25;;;;;18.95;66.04;101205.66;4885836;29;45502;-68
2022/09/10 08:39:23;;;;;;;;;1.50;1.50;;;;;18.91;65.62;101195.13;4902803;29;46729;-68
2022/09/10 08:41:58;;;;;;;;;1.50;1.25;;;;;18.79;66.16;101175.06;4902857;29;45409;-68
2022/09/10 08:44:27;;;;;;;;;1.75;1.75;;;;;19.00;66.08;101213.50;4903068;29;45463;-68
2022/09/10 08:47:19;;;;;;;;;1.25;1.25;;;;;19.01;66.06;101215.22;4901617;28;45430;-69
2022/09/10 08:49:53;;;;;;;;;2.00;2.00;;;;;18.96;65.88;101206.53;4885876;28;45397;-69
2022/09/10 08:52:30;;;;;;;;;3.00;1.75;;;;;19.04;65.79;101213.25;4892115;29;46141;-68
2022/09/10 08:55:17;;;;;;;;;2.75;2.00;;;;;19.06;65.59;101222.13;4905440;28;45320;-68
2022/09/10 08:57:50;;;;;;;;;0.75;0.75;;;;;19.08;66.08;101219.34;4898777;28;45522;-66
2022/09/10 09:00:22;;;;;;;;;2.50;1.00;;;;;19.04;65.69;101215.94;4912399;28;46313;-74
2022/09/10 09:03:02;;;;;;;;;1.75;0.75;;;;;19.13;65.58;101217.22;4902075;28;45323;-73
2022/09/10 09:05:38;;;;;;;;;0.50;0.50;;;;;19.15;65.53;101238.78;4893365;28;45955;-68
2022/09/10 09:08:03;;;;;;;;;3.75;2.50;;;;;19.16;65.29;101235.97;4896627;28;45641;-68
2022/09/10 09:10:48;;;;;;;;;3.00;1.75;;;;;19.12;65.58;101231.69;4898079;28;45483;-68
2022/09/10 09:13:21;;;;;;;;;3.00;3.00;;;;;19.16;65.44;101233.28;4899480;28;45440;-68
2022/09/10 09:15:55;;;;;;;;;2.75;2.00;;;;;19.18;65.44;101246.72;4901400;28;45426;-68
2022/09/10 09:18:45;;;;;;;;;4.50;3.00;;;;;19.19;65.58;101245.72;4907021;28;45558;-68
2022/09/10 09:21:34;;;;;;;;;3.25;2.25;;;;;19.16;65.47;101246.81;4896918;29;47273;-68
2022/09/10 09:24:04;;;;;;;;;2.75;2.00;;;;;19.21;65.90;101249.19;4898646;29;45773;-68
2022/09/10 09:26:34;;;;;;;;;3.00;3.00;;;;;19.22;65.91;101254.53;4898755;29;45512;-68
2022/09/10 09:29:06;;;;;;;;;1.50;1.50;;;;;19.20;65.87;101250.19;4898660;29;45837;-67
2022/09/10 09:31:37;;;;;;;;;3.00;2.00;;;;;19.14;65.86;101235.19;4901674;28;46397;-67
2022/09/10 09:34:21;;;;;;;;;4.00;2.00;;;;;19.21;66.33;101247.38;4898083;29;45625;-67
2022/09/10 09:36:52;;;;;;;;;1.00;1.00;;;;;19.19;66.37;101243.88;4897879;29;45454;-68
2022/09/10 09:39:28;;;;;;;;;4.00;2.00;;;;;19.25;66.01;101261.59;4898672;29;46061;-73
2022/09/10 09:42:13;;;;;;;;;3.00;2.00;;;;;19.24;66.35;101258.03;4895729;29;45426;-71
2022/09/10 09:44:48;;;;;;;;;1.00;1.00;;;;;19.24;66.48;101257.16;4902266;29;45464;-73
2022/09/10 09:47:13;;;;;;;;;3.00;3.00;;;;;19.28;66.63;101261.41;4889928;29;45496;-67
2022/09/10 09:49:39;;;;;;;;;1.25;1.25;;;;;19.23;66.72;101250.88;4902250;28;45472;-68
2022/09/10 09:52:34;;;;;;;;;2.00;2.00;;;;;19.20;66.49;101261.88;4886917;29;47248;-67
2022/09/10 09:55:10;;;;;;;;;2.25;2.25;;;;;19.24;66.78;101270.69;4887746;28;45404;-67
2022/09/10 09:57:35;;;;;;;;;1.75;1.75;;;;;19.08;66.84;101240.97;4903413;28;45386;-67
2022/09/10 10:00:35;;;;;;;;;1.75;1.75;;;;;19.30;67.21;101282.97;4907111;28;45696;-71
2022/09/10 10:03:17;;;;;;;;;4.00;2.50;;;;;19.28;67.33;101276.78;4885488;29;47464;-70
2022/09/10 10:05:42;;;;;;;;;0.25;0.25;;;;;19.23;67.60;101272.53;4900874;28;46690;-71
2022/09/10 10:08:36;;;;;;;;;2.00;2.00;;;;;19.29;67.46;101281.22;4900920;29;45530;-70
2022/09/10 10:11:03;;;;;;;;;2.00;2.00;;;;;19.19;67.76;101270.94;4901615;29;45517;-70
2022/09/10 10:13:37;;;;;;;;;3.75;3.00;;;;;19.29;67.54;101283.94;4884546;29;46864;-70
2022/09/10 10:16:13;;;;;;;;;2.50;2.00;;;;;19.12;67.49;101266.88;4901463;29;45451;-70
2022/09/10 10:18:41;;;;;;;;;2.75;2.50;;;;;19.22;67.41;101273.47;4901489;29;45495;-72
2022/09/10 10:21:16;;;;;;;;;1.75;1.75;;;;;19.15;67.97;101268.53;4895929;29;45372;-70
2022/09/10 10:23:42;;;;;;;;;1.75;1.75;;;;;19.19;67.86;101267.38;4894450;29;46692;-72
2022/09/10 10:26:27;;;;;;;;;2.75;2.00;;;;;19.17;67.61;101270.19;4880726;29;45753;-74
2022/09/10 10:28:55;;;;;;;;;2.00;2.00;;;;;19.27;67.62;101278.63;4875347;28;46840;-73
2022/09/10 10:31:20;;;;;;;;;4.25;3.50;;;;;19.28;68.05;101288.50;4884087;29;45652;-73
2022/09/10 10:33:57;;;;;;;;;1.75;1.75;;;;;19.29;67.55;101286.66;4900876;29;45908;-73
2022/09/10 10:37:04;;;;;;;;;1.75;1.00;;;;;19.30;67.56;101283.84;4900831;29;45511;-72
2022/09/10 10:39:41;;;;;;;;;2.00;2.00;;;;;19.32;67.73;101291.88;4824446;29;45378;-72
2022/09/10 10:42:23;;;;;;;;;2.00;2.00;;;;;19.31;67.63;101290.13;4900875;29;45490;-72
2022/09/10 10:45:04;;;;;;;;;2.00;2.00;;;;;19.31;67.72;101290.13;4900443;29;45471;-72
2022/09/10 10:48:01;;;;;;;;;4.00;3.00;;;;;19.22;67.89;101267.19;4890144;29;45877;-70
2022/09/10 10:50:42;;;;;;;;;3.75;3.00;;;;;19.18;68.14;101276.47;4857367;29;45873;-70
2022/09/10 10:53:47;;;;;;;;;5.00;2.50;;;;;19.25;68.79;101275.13;4900748;29;45827;-71
2022/09/10 10:56:24;;;;;;;;;2.50;2.50;;;;;19.23;68.53;101277.94;4857745;28;47625;-72
2022/09/10 10:59:13;;;;;;;;;2.25;2.25;;;;;19.18;68.72;101280.03;4901007;29;45731;-72
2022/09/10 11:01:50;;;;;;;;;3.75;3.00;;;;;19.15;68.77;101269.41;4898970;29;45573;-71
2022/09/10 11:04:15;;;;;;;;;3.25;2.25;;;;;19.27;69.23;101280.47;4900499;29;45543;-72
2022/09/10 11:06:46;;;;;;;;;2.00;2.00;;;;;19.22;69.68;101269.91;4900155;29;45872;-72
2022/09/10 11:09:18;;;;;;;;;3.50;3.50;;;;;19.22;69.67;101265.34;4883407;29;46150;-75
2022/09/10 11:12:02;;;;;;;;;3.00;3.00;;;;;19.30;69.83;101280.28;4898781;29;45575;-74
2022/09/10 11:14:48;;;;;;;;;3.00;3.00;;;;;19.31;69.93;101280.19;4882978;29;45567;-74
2022/09/10 11:17:38;;;;;;;;;3.25;2.00;;;;;19.32;70.01;101268.38;4897028;28;46607;-74
2022/09/10 11:20:45;;;;;;;;;3.50;3.00;;;;;19.28;69.66;101264.13;4899962;29;45892;-75
2022/09/10 11:23:35;;;;;;;;;7.00;6.25;;;;;19.34;70.32;101271.84;4894082;29;45519;-73
2022/09/10 11:26:11;;;;;;;;;3.75;3.75;;;;;19.28;70.07;101257.81;4900075;29;45770;-73
2022/09/10 11:29:06;;;;;;;;;4.25;4.00;;;;;19.34;70.13;101262.88;4900338;29;45771;-76
2022/09/10 11:31:39;;;;;;;;;2.00;2.00;;;;;19.28;70.00;101253.31;4898190;29;45768;-75
2022/09/10 11:34:13;;;;;;;;;5.75;3.25;;;;;19.30;69.89;101261.34;4899788;29;45495;-74
2022/09/10 11:36:44;;;;;;;;;3.00;3.00;;;;;19.39;70.01;101264.31;4899536;29;45515;-75
2022/09/10 11:39:31;;;;;;;;;3.75;3.75;;;;;19.40;70.46;101259.81;4898941;29;45426;-73